Aberdeen, Pennsylvania
Current Conditions -  °F | °C
As of 9:56 AM on Friday 31 Oct 2014 (Local Time) from KMDT Reporting Station
Overcast Overcast  
Wind Chill: 44°   Ceiling: 5500
Heat Index: 47°   Visibility: 10mi
Dew Point: 35°   Wind: 6mph
Humidity: 63%   Direction: 110°ESE
Pressure: 30"   Gusts: NA
Location:  40.1674°N, 76.6045°W
Report Text: KMDT 311356Z 11005KT 10SM OVC055 08/02 A3000 RMK AO2 SLP161 T00830017
Loading
Personal Weather Stations






























Interactive Weather Map
Tropical Storm Tracking
New forecast layout! Learn more

10-Day Weather Forecast

Advertisements
Track Severe Weather on mobile